BAW824 EGLL-EIDW
Flight info
| Callsign | BAW824 |
|---|---|
| Flight time | 0h 52m |
| Altitude | 24000 |
| Route | CPT L9 DIDZA N14 BIBPE/N0443F340 DCT OKTAD DCT MEDOG DCT KRAGY DCT PEMOB DCT LEMGU M17 VATRY VATRY4L |
| Aircraft | A319/M-SDE3FGHIRWY/LB1 |
Departure
| Time | 2026-05-06 05:24 |
|---|---|
| Airport | London Heathrow Airport (EGLL) |
Arrival
| Time | 2026-05-06 06:16 |
|---|---|
| Airport | Dublin Airport (EIDW) |
| Time | Latitude | Longitude | Altitude | Speed | Heading |
|---|---|---|---|---|---|
| 2026-05-06 04:55 | 51.47360 | -0.48592 | 87 ft | 0 kts | 270° |
| 2026-05-06 05:10 | 51.47360 | -0.48581 | 89 ft | 3 kts | 270° |
| 2026-05-06 05:10 | 51.47360 | -0.48548 | 87 ft | 3 kts | 270° |
| 2026-05-06 05:11 | 51.47360 | -0.48520 | 87 ft | 3 kts | 262° |
| 2026-05-06 05:11 | 51.47366 | -0.48491 | 91 ft | 3 kts | 225° |
| 2026-05-06 05:11 | 51.47381 | -0.48477 | 89 ft | 2 kts | 180° |
| 2026-05-06 05:11 | 51.47388 | -0.48477 | 88 ft | 0 kts | 180° |
| 2026-05-06 05:14 | 51.47386 | -0.48477 | 88 ft | 1 kts | 180° |
| 2026-05-06 05:14 | 51.47382 | -0.48477 | 89 ft | 0 kts | 180° |
| 2026-05-06 05:15 | 51.47374 | -0.48477 | 89 ft | 3 kts | 180° |
| 2026-05-06 05:16 | 51.47335 | -0.48476 | 87 ft | 8 kts | 179° |
| 2026-05-06 05:16 | 51.47263 | -0.48475 | 87 ft | 13 kts | 180° |
| 2026-05-06 05:16 | 51.47160 | -0.48475 | 87 ft | 17 kts | 180° |
| 2026-05-06 05:16 | 51.47027 | -0.48473 | 87 ft | 21 kts | 180° |
| 2026-05-06 05:17 | 51.46864 | -0.48472 | 87 ft | 24 kts | 180° |
| 2026-05-06 05:17 | 51.46705 | -0.48470 | 87 ft | 16 kts | 179° |
| 2026-05-06 05:17 | 51.46651 | -0.48359 | 87 ft | 15 kts | 86° |
| 2026-05-06 05:17 | 51.46652 | -0.48185 | 87 ft | 17 kts | 90° |
| 2026-05-06 05:18 | 51.46653 | -0.47987 | 87 ft | 18 kts | 89° |
| 2026-05-06 05:18 | 51.46654 | -0.47773 | 87 ft | 20 kts | 89° |
| 2026-05-06 05:18 | 51.46655 | -0.47547 | 87 ft | 21 kts | 89° |
| 2026-05-06 05:18 | 51.46656 | -0.47305 | 87 ft | 22 kts | 90° |
| 2026-05-06 05:19 | 51.46656 | -0.47055 | 87 ft | 23 kts | 90° |
| 2026-05-06 05:19 | 51.46657 | -0.46793 | 87 ft | 24 kts | 90° |
| 2026-05-06 05:19 | 51.46659 | -0.46524 | 87 ft | 25 kts | 89° |
| 2026-05-06 05:19 | 51.46659 | -0.46243 | 87 ft | 26 kts | 89° |
| 2026-05-06 05:20 | 51.46660 | -0.45952 | 91 ft | 26 kts | 89° |
| 2026-05-06 05:20 | 51.46662 | -0.45653 | 87 ft | 27 kts | 90° |
| 2026-05-06 05:20 | 51.46662 | -0.45352 | 87 ft | 27 kts | 90° |
| 2026-05-06 05:20 | 51.46663 | -0.45042 | 87 ft | 28 kts | 90° |
| 2026-05-06 05:21 | 51.46664 | -0.44793 | 87 ft | 6 kts | 89° |
| 2026-05-06 05:21 | 51.46664 | -0.44710 | 87 ft | 9 kts | 90° |
| 2026-05-06 05:21 | 51.46663 | -0.44608 | 87 ft | 10 kts | 90° |
| 2026-05-06 05:21 | 51.46663 | -0.44491 | 87 ft | 11 kts | 89° |
| 2026-05-06 05:22 | 51.46665 | -0.44358 | 87 ft | 12 kts | 89° |
| 2026-05-06 05:22 | 51.46666 | -0.44209 | 87 ft | 15 kts | 89° |
| 2026-05-06 05:22 | 51.46656 | -0.44064 | 88 ft | 9 kts | 134° |
| 2026-05-06 05:22 | 51.46613 | -0.44056 | 87 ft | 7 kts | 180° |
| 2026-05-06 05:23 | 51.46563 | -0.44055 | 86 ft | 8 kts | 180° |
| 2026-05-06 05:23 | 51.46504 | -0.44067 | 86 ft | 9 kts | 216° |
| 2026-05-06 05:23 | 51.46491 | -0.44229 | 86 ft | 35 kts | 270° |
| 2026-05-06 05:24 | 51.46491 | -0.45066 | 88 ft | 113 kts | 270° |
| 2026-05-06 05:24 | 51.46498 | -0.46687 | 96 ft | 173 kts | 271° |
| 2026-05-06 05:24 | 51.46529 | -0.48633 | 788 ft | 172 kts | 274° |
| 2026-05-06 05:24 | 51.46500 | -0.50549 | 1556 ft | 176 kts | 272° |
| 2026-05-06 05:25 | 51.46454 | -0.52565 | 2152 ft | 190 kts | 273° |
| 2026-05-06 05:25 | 51.46424 | -0.54802 | 2599 ft | 211 kts | 273° |
| 2026-05-06 05:25 | 51.46396 | -0.57306 | 3037 ft | 237 kts | 272° |
| 2026-05-06 05:25 | 51.46366 | -0.60063 | 3677 ft | 258 kts | 272° |
| 2026-05-06 05:26 | 51.46203 | -0.62971 | 4701 ft | 266 kts | 261° |
| 2026-05-06 05:26 | 51.45771 | -0.65897 | 5593 ft | 269 kts | 259° |
| 2026-05-06 05:26 | 51.45498 | -0.68803 | 5895 ft | 265 kts | 270° |
| 2026-05-06 05:26 | 51.45448 | -0.71764 | 5994 ft | 264 kts | 271° |
| 2026-05-06 05:27 | 51.45410 | -0.74709 | 6007 ft | 264 kts | 271° |
| 2026-05-06 05:27 | 51.45379 | -0.77653 | 6032 ft | 265 kts | 271° |
| 2026-05-06 05:27 | 51.45349 | -0.80603 | 6933 ft | 267 kts | 271° |
| 2026-05-06 05:27 | 51.45319 | -0.83609 | 7971 ft | 271 kts | 271° |
| 2026-05-06 05:28 | 51.45290 | -0.86663 | 8924 ft | 276 kts | 271° |
| 2026-05-06 05:28 | 51.45482 | -0.89716 | 9847 ft | 280 kts | 282° |
| 2026-05-06 05:28 | 51.45851 | -0.92878 | 10413 ft | 298 kts | 282° |
| 2026-05-06 05:28 | 51.46251 | -0.96306 | 10745 ft | 322 kts | 282° |
| 2026-05-06 05:29 | 51.46664 | -0.99868 | 11334 ft | 334 kts | 282° |
| 2026-05-06 05:29 | 51.47088 | -1.03571 | 12139 ft | 339 kts | 281° |
| 2026-05-06 05:29 | 51.47513 | -1.07315 | 12956 ft | 343 kts | 281° |
| 2026-05-06 05:29 | 51.47941 | -1.11117 | 13766 ft | 347 kts | 281° |
| 2026-05-06 05:30 | 51.48365 | -1.14913 | 14479 ft | 351 kts | 281° |
| 2026-05-06 05:30 | 51.48944 | -1.18727 | 15226 ft | 354 kts | 290° |
| 2026-05-06 05:30 | 51.50002 | -1.22306 | 15969 ft | 356 kts | 301° |
| 2026-05-06 05:30 | 51.51525 | -1.25492 | 16717 ft | 361 kts | 313° |
| 2026-05-06 05:31 | 51.53360 | -1.28285 | 17444 ft | 365 kts | 316° |
| 2026-05-06 05:31 | 51.55224 | -1.31083 | 18164 ft | 368 kts | 315° |
| 2026-05-06 05:31 | 51.57086 | -1.33903 | 18784 ft | 372 kts | 315° |
| 2026-05-06 05:31 | 51.58974 | -1.36774 | 19432 ft | 375 kts | 315° |
| 2026-05-06 05:32 | 51.60729 | -1.39921 | 20060 ft | 378 kts | 305° |
| 2026-05-06 05:32 | 51.62094 | -1.43487 | 20679 ft | 380 kts | 297° |
| 2026-05-06 05:32 | 51.63339 | -1.47271 | 21308 ft | 384 kts | 297° |
| 2026-05-06 05:32 | 51.64610 | -1.51089 | 21943 ft | 387 kts | 297° |
| 2026-05-06 05:33 | 51.65898 | -1.54940 | 22544 ft | 391 kts | 297° |
| 2026-05-06 05:33 | 51.67176 | -1.58771 | 23124 ft | 394 kts | 297° |
| 2026-05-06 05:33 | 51.68479 | -1.62686 | 23680 ft | 397 kts | 297° |
| 2026-05-06 05:33 | 51.69721 | -1.66728 | 24148 ft | 400 kts | 291° |
| 2026-05-06 05:34 | 51.70538 | -1.70996 | 24631 ft | 403 kts | 282° |
| 2026-05-06 05:34 | 51.70933 | -1.75427 | 25094 ft | 405 kts | 276° |
| 2026-05-06 05:34 | 51.71252 | -1.79979 | 25564 ft | 408 kts | 276° |
| 2026-05-06 05:34 | 51.71586 | -1.84533 | 26025 ft | 410 kts | 278° |
| 2026-05-06 05:35 | 51.72198 | -1.89062 | 26485 ft | 413 kts | 283° |
| 2026-05-06 05:35 | 51.72878 | -1.93539 | 26947 ft | 416 kts | 283° |
| 2026-05-06 05:35 | 51.73561 | -1.98110 | 27407 ft | 418 kts | 283° |
| 2026-05-06 05:35 | 51.74239 | -2.02695 | 27861 ft | 421 kts | 283° |
| 2026-05-06 05:36 | 51.74920 | -2.07310 | 28305 ft | 423 kts | 283° |
| 2026-05-06 05:36 | 51.75595 | -2.11897 | 28742 ft | 426 kts | 283° |
| 2026-05-06 05:36 | 51.76284 | -2.16589 | 29162 ft | 428 kts | 283° |
| 2026-05-06 05:36 | 51.76974 | -2.21297 | 29579 ft | 431 kts | 283° |
| 2026-05-06 05:37 | 51.77658 | -2.25983 | 29978 ft | 433 kts | 283° |
| 2026-05-06 05:37 | 51.78323 | -2.30554 | 30318 ft | 436 kts | 283° |
| 2026-05-06 05:37 | 51.79017 | -2.35330 | 30643 ft | 438 kts | 283° |
| 2026-05-06 05:37 | 51.79712 | -2.40133 | 30972 ft | 440 kts | 283° |
| 2026-05-06 05:38 | 51.80410 | -2.44996 | 31314 ft | 441 kts | 283° |
| 2026-05-06 05:38 | 51.81094 | -2.49795 | 31773 ft | 440 kts | 283° |
| 2026-05-06 05:38 | 51.81782 | -2.54612 | 32244 ft | 439 kts | 283° |
| 2026-05-06 05:38 | 51.82457 | -2.59378 | 32704 ft | 437 kts | 283° |
| 2026-05-06 05:39 | 51.83122 | -2.64185 | 33196 ft | 436 kts | 282° |
| 2026-05-06 05:39 | 51.83765 | -2.68938 | 33679 ft | 434 kts | 282° |
| 2026-05-06 05:39 | 51.84400 | -2.73682 | 33981 ft | 434 kts | 282° |
| 2026-05-06 05:39 | 51.84828 | -2.76897 | 34022 ft | 431 kts | 282° |
| 2026-05-06 05:40 | 51.86287 | -2.87879 | 34025 ft | 426 kts | 282° |
| 2026-05-06 05:40 | 51.87535 | -2.97237 | 34026 ft | 426 kts | 282° |
| 2026-05-06 05:41 | 51.88778 | -3.06561 | 34027 ft | 425 kts | 282° |
| 2026-05-06 05:41 | 51.89988 | -3.15783 | 34025 ft | 425 kts | 282° |
| 2026-05-06 05:42 | 51.91197 | -3.25076 | 34025 ft | 425 kts | 282° |
| 2026-05-06 05:42 | 51.92420 | -3.34475 | 34017 ft | 425 kts | 281° |
| 2026-05-06 05:43 | 51.93621 | -3.43761 | 34014 ft | 424 kts | 281° |
| 2026-05-06 05:43 | 51.94809 | -3.53116 | 34016 ft | 424 kts | 281° |
| 2026-05-06 05:44 | 51.95985 | -3.62384 | 34007 ft | 424 kts | 281° |
| 2026-05-06 05:44 | 51.97165 | -3.71721 | 34010 ft | 423 kts | 281° |
| 2026-05-06 05:45 | 51.98352 | -3.81171 | 34005 ft | 423 kts | 281° |
| 2026-05-06 05:45 | 51.99522 | -3.90542 | 34005 ft | 423 kts | 281° |
| 2026-05-06 05:46 | 52.00672 | -3.99833 | 34007 ft | 423 kts | 281° |
| 2026-05-06 05:46 | 52.01814 | -4.09171 | 34007 ft | 422 kts | 281° |
| 2026-05-06 05:47 | 52.02960 | -4.18538 | 34010 ft | 422 kts | 281° |
| 2026-05-06 05:47 | 52.04092 | -4.27859 | 34021 ft | 422 kts | 281° |
| 2026-05-06 05:48 | 52.05210 | -4.37197 | 34017 ft | 421 kts | 281° |
| 2026-05-06 05:48 | 52.06321 | -4.46504 | 34018 ft | 421 kts | 280° |
| 2026-05-06 05:49 | 52.07431 | -4.55856 | 34017 ft | 421 kts | 280° |
| 2026-05-06 05:49 | 52.08530 | -4.65176 | 34023 ft | 420 kts | 280° |
| 2026-05-06 05:50 | 52.09625 | -4.74530 | 33892 ft | 421 kts | 280° |
| 2026-05-06 05:50 | 52.10160 | -4.79155 | 33614 ft | 420 kts | 280° |
| 2026-05-06 05:50 | 52.10700 | -4.83835 | 32694 ft | 423 kts | 280° |
| 2026-05-06 05:51 | 52.11247 | -4.88600 | 31668 ft | 428 kts | 280° |
| 2026-05-06 05:51 | 52.11789 | -4.93333 | 30709 ft | 431 kts | 280° |
| 2026-05-06 05:51 | 52.12341 | -4.98163 | 29923 ft | 430 kts | 280° |
| 2026-05-06 05:51 | 52.12883 | -5.02929 | 29237 ft | 424 kts | 280° |
| 2026-05-06 05:52 | 52.13514 | -5.07525 | 28567 ft | 418 kts | 287° |
| 2026-05-06 05:52 | 52.14658 | -5.11861 | 27915 ft | 414 kts | 298° |
| 2026-05-06 05:52 | 52.16303 | -5.15693 | 27267 ft | 412 kts | 309° |
| 2026-05-06 05:52 | 52.18347 | -5.18865 | 26643 ft | 410 kts | 320° |
| 2026-05-06 05:53 | 52.20749 | -5.21344 | 26016 ft | 409 kts | 331° |
| 2026-05-06 05:53 | 52.23286 | -5.23413 | 25393 ft | 405 kts | 331° |
| 2026-05-06 05:53 | 52.25815 | -5.25481 | 24776 ft | 402 kts | 331° |
| 2026-05-06 05:53 | 52.28293 | -5.27514 | 24176 ft | 399 kts | 331° |
| 2026-05-06 05:54 | 52.30750 | -5.29535 | 23583 ft | 396 kts | 331° |
| 2026-05-06 05:54 | 52.33204 | -5.31555 | 22978 ft | 393 kts | 331° |
| 2026-05-06 05:54 | 52.35643 | -5.33565 | 22438 ft | 388 kts | 331° |
| 2026-05-06 05:54 | 52.38042 | -5.35546 | 21939 ft | 384 kts | 331° |
| 2026-05-06 05:55 | 52.40395 | -5.37491 | 21452 ft | 381 kts | 331° |
| 2026-05-06 05:55 | 52.42764 | -5.39454 | 20978 ft | 377 kts | 331° |
| 2026-05-06 05:55 | 52.45065 | -5.41360 | 20526 ft | 373 kts | 331° |
| 2026-05-06 05:55 | 52.47386 | -5.43285 | 20045 ft | 370 kts | 331° |
| 2026-05-06 05:56 | 52.49675 | -5.45188 | 19570 ft | 367 kts | 331° |
| 2026-05-06 05:56 | 52.51930 | -5.47067 | 19082 ft | 364 kts | 331° |
| 2026-05-06 05:56 | 52.54181 | -5.48944 | 18593 ft | 362 kts | 331° |
| 2026-05-06 05:56 | 52.56509 | -5.50547 | 18054 ft | 362 kts | 340° |
| 2026-05-06 05:57 | 52.58903 | -5.51754 | 17547 ft | 358 kts | 341° |
| 2026-05-06 05:57 | 52.61281 | -5.52962 | 17039 ft | 355 kts | 341° |
| 2026-05-06 05:57 | 52.63627 | -5.54165 | 16536 ft | 352 kts | 341° |
| 2026-05-06 05:57 | 52.65922 | -5.55350 | 16048 ft | 349 kts | 341° |
| 2026-05-06 05:58 | 52.68228 | -5.56544 | 15556 ft | 346 kts | 341° |
| 2026-05-06 05:58 | 52.70526 | -5.57735 | 15065 ft | 344 kts | 341° |
| 2026-05-06 05:58 | 52.72807 | -5.58916 | 14580 ft | 341 kts | 341° |
| 2026-05-06 05:58 | 52.75046 | -5.60077 | 14090 ft | 339 kts | 341° |
| 2026-05-06 05:59 | 52.77308 | -5.61253 | 13498 ft | 339 kts | 341° |
| 2026-05-06 05:59 | 52.79555 | -5.62424 | 12984 ft | 336 kts | 341° |
| 2026-05-06 05:59 | 52.81776 | -5.63582 | 12498 ft | 332 kts | 341° |
| 2026-05-06 05:59 | 52.83939 | -5.64709 | 12011 ft | 329 kts | 341° |
| 2026-05-06 06:00 | 52.86113 | -5.65844 | 11520 ft | 325 kts | 341° |
| 2026-05-06 06:00 | 52.88265 | -5.66973 | 11022 ft | 323 kts | 341° |
| 2026-05-06 06:00 | 52.90407 | -5.68100 | 10568 ft | 319 kts | 341° |
| 2026-05-06 06:00 | 52.92489 | -5.69194 | 10437 ft | 306 kts | 341° |
| 2026-05-06 06:01 | 52.94452 | -5.70224 | 10306 ft | 293 kts | 341° |
| 2026-05-06 06:01 | 52.96373 | -5.71233 | 10136 ft | 284 kts | 341° |
| 2026-05-06 06:01 | 52.98229 | -5.72207 | 9946 ft | 279 kts | 341° |
| 2026-05-06 06:01 | 53.00077 | -5.73178 | 9816 ft | 278 kts | 341° |
| 2026-05-06 06:02 | 53.01938 | -5.74158 | 9324 ft | 282 kts | 341° |
| 2026-05-06 06:02 | 53.03799 | -5.75138 | 8861 ft | 281 kts | 341° |
| 2026-05-06 06:02 | 53.05637 | -5.76110 | 8469 ft | 276 kts | 341° |
| 2026-05-06 06:02 | 53.07458 | -5.77072 | 7829 ft | 273 kts | 341° |
| 2026-05-06 06:03 | 53.09265 | -5.78029 | 7334 ft | 266 kts | 342° |
| 2026-05-06 06:03 | 53.10990 | -5.78943 | 7205 ft | 254 kts | 342° |
| 2026-05-06 06:03 | 53.12665 | -5.79428 | 7088 ft | 242 kts | 3° |
| 2026-05-06 06:03 | 53.14245 | -5.78665 | 7033 ft | 237 kts | 29° |
| 2026-05-06 06:04 | 53.15105 | -5.77529 | 7043 ft | 238 kts | 46° |
| 2026-05-06 06:04 | 53.16287 | -5.74416 | 7043 ft | 240 kts | 59° |
| 2026-05-06 06:04 | 53.16836 | -5.72804 | 7043 ft | 240 kts | 59° |
| 2026-05-06 06:04 | 53.17925 | -5.69587 | 7039 ft | 240 kts | 59° |
| 2026-05-06 06:05 | 53.18480 | -5.67947 | 7039 ft | 240 kts | 59° |
| 2026-05-06 06:05 | 53.19295 | -5.65557 | 7041 ft | 240 kts | 57° |
| 2026-05-06 06:05 | 53.20364 | -5.63423 | 7046 ft | 238 kts | 40° |
| 2026-05-06 06:05 | 53.21674 | -5.61774 | 7052 ft | 238 kts | 35° |
| 2026-05-06 06:06 | 53.23009 | -5.60136 | 7048 ft | 238 kts | 36° |
| 2026-05-06 06:06 | 53.24345 | -5.58488 | 7044 ft | 238 kts | 36° |
| 2026-05-06 06:06 | 53.25682 | -5.56835 | 7049 ft | 239 kts | 36° |
| 2026-05-06 06:06 | 53.27025 | -5.55241 | 7034 ft | 239 kts | 28° |
| 2026-05-06 06:07 | 53.28606 | -5.54485 | 7044 ft | 238 kts | 1° |
| 2026-05-06 06:07 | 53.30222 | -5.54979 | 6914 ft | 238 kts | 336° |
| 2026-05-06 06:07 | 53.31520 | -5.56606 | 6656 ft | 235 kts | 310° |
| 2026-05-06 06:07 | 53.32276 | -5.58986 | 6498 ft | 228 kts | 291° |
| 2026-05-06 06:08 | 53.32833 | -5.61425 | 6358 ft | 219 kts | 292° |
| 2026-05-06 06:08 | 53.33370 | -5.63779 | 6229 ft | 212 kts | 292° |
| 2026-05-06 06:08 | 53.33876 | -5.66001 | 6141 ft | 200 kts | 292° |
| 2026-05-06 06:08 | 53.34380 | -5.68211 | 5589 ft | 208 kts | 291° |
| 2026-05-06 06:09 | 53.34906 | -5.70517 | 5113 ft | 211 kts | 291° |
| 2026-05-06 06:09 | 53.35421 | -5.72789 | 4727 ft | 210 kts | 291° |
| 2026-05-06 06:09 | 53.35936 | -5.75079 | 4323 ft | 209 kts | 291° |
| 2026-05-06 06:09 | 53.36443 | -5.77337 | 3934 ft | 208 kts | 291° |
| 2026-05-06 06:10 | 53.36952 | -5.79599 | 3539 ft | 206 kts | 291° |
| 2026-05-06 06:10 | 53.37459 | -5.81850 | 3322 ft | 206 kts | 291° |
| 2026-05-06 06:10 | 53.37966 | -5.84098 | 3188 ft | 206 kts | 291° |
| 2026-05-06 06:10 | 53.38467 | -5.86326 | 3071 ft | 206 kts | 291° |
| 2026-05-06 06:11 | 53.38969 | -5.88568 | 2953 ft | 205 kts | 291° |
| 2026-05-06 06:11 | 53.39462 | -5.90776 | 2995 ft | 205 kts | 291° |
| 2026-05-06 06:11 | 53.39961 | -5.93012 | 3004 ft | 204 kts | 290° |
| 2026-05-06 06:11 | 53.40298 | -5.95332 | 3009 ft | 205 kts | 279° |
| 2026-05-06 06:12 | 53.40473 | -5.97717 | 3000 ft | 203 kts | 276° |
| 2026-05-06 06:12 | 53.40608 | -5.99977 | 2866 ft | 191 kts | 276° |
| 2026-05-06 06:12 | 53.40732 | -6.02133 | 2733 ft | 180 kts | 276° |
| 2026-05-06 06:12 | 53.40849 | -6.04168 | 2651 ft | 169 kts | 276° |
| 2026-05-06 06:13 | 53.40957 | -6.06066 | 2511 ft | 163 kts | 276° |
| 2026-05-06 06:13 | 53.41064 | -6.07945 | 2314 ft | 160 kts | 276° |
| 2026-05-06 06:13 | 53.41169 | -6.09793 | 2106 ft | 155 kts | 276° |
| 2026-05-06 06:13 | 53.41265 | -6.11480 | 1904 ft | 140 kts | 276° |
| 2026-05-06 06:14 | 53.41353 | -6.13050 | 1716 ft | 132 kts | 276° |
| 2026-05-06 06:14 | 53.41439 | -6.14564 | 1541 ft | 129 kts | 276° |
| 2026-05-06 06:14 | 53.41523 | -6.16060 | 1358 ft | 128 kts | 276° |
| 2026-05-06 06:14 | 53.41606 | -6.17531 | 1166 ft | 126 kts | 276° |
| 2026-05-06 06:15 | 53.41687 | -6.18989 | 987 ft | 124 kts | 276° |
| 2026-05-06 06:15 | 53.41767 | -6.20412 | 813 ft | 123 kts | 276° |
| 2026-05-06 06:15 | 53.41846 | -6.21829 | 641 ft | 123 kts | 275° |
| 2026-05-06 06:15 | 53.41925 | -6.23251 | 492 ft | 122 kts | 275° |
| 2026-05-06 06:16 | 53.42005 | -6.24676 | 312 ft | 122 kts | 275° |
| 2026-05-06 06:16 | 53.42079 | -6.26057 | 213 ft | 108 kts | 277° |
| 2026-05-06 06:16 | 53.42132 | -6.27014 | 211 ft | 59 kts | 275° |
| 2026-05-06 06:16 | 53.42158 | -6.27476 | 213 ft | 32 kts | 275° |
| 2026-05-06 06:17 | 53.42201 | -6.27844 | 214 ft | 32 kts | 295° |
| 2026-05-06 06:17 | 53.42275 | -6.28061 | 212 ft | 13 kts | 302° |
| 2026-05-06 06:17 | 53.42301 | -6.28117 | 216 ft | 7 kts | 317° |
| 2026-05-06 06:17 | 53.42344 | -6.28140 | 211 ft | 0 kts | 13° |
| 2026-05-06 06:18 | 53.42345 | -6.28139 | 211 ft | 0 kts | 14° |
| 2026-05-06 06:19 | 53.42351 | -6.28135 | 211 ft | 3 kts | 19° |
| 2026-05-06 06:19 | 53.42364 | -6.28078 | 211 ft | 8 kts | 89° |
| 2026-05-06 06:19 | 53.42358 | -6.27970 | 211 ft | 11 kts | 95° |
| 2026-05-06 06:20 | 53.42350 | -6.27812 | 220 ft | 16 kts | 95° |
| 2026-05-06 06:20 | 53.42338 | -6.27604 | 211 ft | 20 kts | 95° |
| 2026-05-06 06:20 | 53.42324 | -6.27350 | 211 ft | 24 kts | 95° |
| 2026-05-06 06:20 | 53.42309 | -6.27058 | 211 ft | 26 kts | 95° |
| 2026-05-06 06:21 | 53.42291 | -6.26752 | 215 ft | 27 kts | 96° |
| 2026-05-06 06:21 | 53.42274 | -6.26432 | 218 ft | 28 kts | 95° |
| 2026-05-06 06:21 | 53.42256 | -6.26102 | 211 ft | 29 kts | 96° |
| 2026-05-06 06:21 | 53.42237 | -6.25759 | 211 ft | 30 kts | 96° |
| 2026-05-06 06:22 | 53.42217 | -6.25406 | 211 ft | 31 kts | 95° |
| 2026-05-06 06:22 | 53.42200 | -6.25066 | 211 ft | 11 kts | 85° |
| 2026-05-06 06:22 | 53.42249 | -6.24962 | 211 ft | 13 kts | 47° |
| 2026-05-06 06:22 | 53.42315 | -6.24850 | 211 ft | 11 kts | 45° |
| 2026-05-06 06:23 | 53.42322 | -6.24839 | 211 ft | 2 kts | 45° |
| 2026-05-06 06:23 | 53.42329 | -6.24826 | 211 ft | 3 kts | 47° |
| 2026-05-06 06:23 | 53.42336 | -6.24815 | 220 ft | 4 kts | 44° |
| 2026-05-06 06:23 | 53.42366 | -6.24763 | 215 ft | 9 kts | 46° |
| 2026-05-06 06:24 | 53.42411 | -6.24668 | 211 ft | 12 kts | 59° |
| 2026-05-06 06:24 | 53.42451 | -6.24538 | 211 ft | 13 kts | 63° |
| 2026-05-06 06:24 | 53.42502 | -6.24432 | 211 ft | 12 kts | 37° |
| 2026-05-06 06:24 | 53.42521 | -6.24409 | 217 ft | 3 kts | 34° |
| 2026-05-06 06:25 | 53.42546 | -6.24399 | 213 ft | 5 kts | 356° |
| 2026-05-06 06:25 | 53.42579 | -6.24430 | 213 ft | 7 kts | 327° |
| 2026-05-06 06:25 | 53.42624 | -6.24478 | 211 ft | 0 kts | 328° |
| 2026-05-06 06:26 | 53.42625 | -6.24480 | 218 ft | 0 kts | 328° |